sensor_id;sensor_type;location;lat;lon;timestamp;P1;durP1;ratioP1;P2;durP2;ratioP2
70450;SDS011;58869;51.982;4.450;2023-07-16T00:02:20;5.35;;;5.15;;
70450;SDS011;58869;51.982;4.450;2023-07-16T00:04:45;5.50;;;5.31;;
70450;SDS011;58869;51.982;4.450;2023-07-16T00:07:15;5.40;;;5.30;;
70450;SDS011;58869;51.982;4.450;2023-07-16T00:09:42;4.81;;;4.74;;
70450;SDS011;58869;51.982;4.450;2023-07-16T00:12:08;5.50;;;5.36;;
70450;SDS011;58869;51.982;4.450;2023-07-16T00:14:34;5.22;;;5.15;;
70450;SDS011;58869;51.982;4.450;2023-07-16T00:17:01;5.70;;;5.64;;
70450;SDS011;58869;51.982;4.450;2023-07-16T00:19:36;5.37;;;5.27;;
70450;SDS011;58869;51.982;4.450;2023-07-16T00:22:04;5.39;;;5.26;;
70450;SDS011;58869;51.982;4.450;2023-07-16T00:27:31;5.83;;;5.76;;
70450;SDS011;58869;51.982;4.450;2023-07-16T00:30:07;5.72;;;5.63;;
70450;SDS011;58869;51.982;4.450;2023-07-16T00:32:33;5.37;;;5.33;;
70450;SDS011;58869;51.982;4.450;2023-07-16T00:35:08;5.57;;;5.48;;
70450;SDS011;58869;51.982;4.450;2023-07-16T00:37:34;5.98;;;5.88;;
70450;SDS011;58869;51.982;4.450;2023-07-16T00:40:03;6.09;;;6.01;;
70450;SDS011;58869;51.982;4.450;2023-07-16T00:42:35;6.10;;;6.03;;
70450;SDS011;58869;51.982;4.450;2023-07-16T00:45:01;5.47;;;5.42;;
70450;SDS011;58869;51.982;4.450;2023-07-16T00:47:27;6.06;;;5.98;;
70450;SDS011;58869;51.982;4.450;2023-07-16T00:49:54;6.62;;;6.41;;
70450;SDS011;58869;51.982;4.450;2023-07-16T00:52:20;6.02;;;5.92;;
70450;SDS011;58869;51.982;4.450;2023-07-16T00:54:49;6.08;;;5.99;;
70450;SDS011;58869;51.982;4.450;2023-07-16T00:57:15;6.34;;;6.24;;
70450;SDS011;58869;51.982;4.450;2023-07-16T00:59:44;6.56;;;6.50;;
70450;SDS011;58869;51.982;4.450;2023-07-16T01:02:09;6.48;;;6.44;;
70450;SDS011;58869;51.982;4.450;2023-07-16T01:04:35;6.26;;;6.17;;
70450;SDS011;58869;51.982;4.450;2023-07-16T01:07:08;6.52;;;6.43;;
70450;SDS011;58869;51.982;4.450;2023-07-16T01:09:50;6.72;;;6.63;;
70450;SDS011;58869;51.982;4.450;2023-07-16T01:12:18;6.62;;;6.47;;
70450;SDS011;58869;51.982;4.450;2023-07-16T01:14:55;6.78;;;6.65;;
70450;SDS011;58869;51.982;4.450;2023-07-16T01:17:21;6.75;;;6.61;;
70450;SDS011;58869;51.982;4.450;2023-07-16T01:19:47;6.89;;;6.78;;
70450;SDS011;58869;51.982;4.450;2023-07-16T01:28:21;7.56;;;7.50;;
70450;SDS011;58869;51.982;4.450;2023-07-16T01:30:59;7.64;;;7.55;;
70450;SDS011;58869;51.982;4.450;2023-07-16T01:33:26;7.94;;;7.85;;
70450;SDS011;58869;51.982;4.450;2023-07-16T01:35:54;8.11;;;8.06;;
70450;SDS011;58869;51.982;4.450;2023-07-16T01:38:21;7.69;;;7.65;;
70450;SDS011;58869;51.982;4.450;2023-07-16T01:40:48;7.54;;;7.53;;
70450;SDS011;58869;51.982;4.450;2023-07-16T01:43:13;7.95;;;7.95;;
70450;SDS011;58869;51.982;4.450;2023-07-16T01:45:39;8.48;;;8.43;;
70450;SDS011;58869;51.982;4.450;2023-07-16T01:50:36;8.12;;;8.03;;
70450;SDS011;58869;51.982;4.450;2023-07-16T01:53:02;8.18;;;8.08;;
70450;SDS011;58869;51.982;4.450;2023-07-16T01:55:27;8.62;;;8.48;;
70450;SDS011;58869;51.982;4.450;2023-07-16T01:57:53;8.74;;;8.66;;
70450;SDS011;58869;51.982;4.450;2023-07-16T02:00:18;8.36;;;8.34;;
70450;SDS011;58869;51.982;4.450;2023-07-16T02:02:45;8.06;;;8.03;;
70450;SDS011;58869;51.982;4.450;2023-07-16T02:05:10;8.04;;;7.92;;
70450;SDS011;58869;51.982;4.450;2023-07-16T02:07:36;8.37;;;8.29;;
70450;SDS011;58869;51.982;4.450;2023-07-16T02:10:01;8.11;;;8.05;;
70450;SDS011;58869;51.982;4.450;2023-07-16T02:12:27;8.76;;;8.60;;
70450;SDS011;58869;51.982;4.450;2023-07-16T02:14:53;8.54;;;8.45;;
70450;SDS011;58869;51.982;4.450;2023-07-16T02:17:18;8.51;;;8.49;;
70450;SDS011;58869;51.982;4.450;2023-07-16T02:19:44;8.32;;;8.24;;
70450;SDS011;58869;51.982;4.450;2023-07-16T02:22:09;8.90;;;8.76;;
70450;SDS011;58869;51.982;4.450;2023-07-16T02:24:35;8.93;;;8.88;;
70450;SDS011;58869;51.982;4.450;2023-07-16T02:27:07;8.40;;;8.32;;
70450;SDS011;58869;51.982;4.450;2023-07-16T02:29:32;9.12;;;9.08;;
70450;SDS011;58869;51.982;4.450;2023-07-16T02:32:01;8.82;;;8.82;;
70450;SDS011;58869;51.982;4.450;2023-07-16T02:34:26;8.89;;;8.89;;
70450;SDS011;58869;51.982;4.450;2023-07-16T02:36:52;9.28;;;9.26;;
70450;SDS011;58869;51.982;4.450;2023-07-16T02:39:28;9.33;;;9.26;;
70450;SDS011;58869;51.982;4.450;2023-07-16T02:41:53;9.00;;;8.95;;
70450;SDS011;58869;51.982;4.450;2023-07-16T02:44:19;8.59;;;8.58;;
70450;SDS011;58869;51.982;4.450;2023-07-16T02:46:44;8.58;;;8.51;;
70450;SDS011;58869;51.982;4.450;2023-07-16T02:49:10;8.54;;;8.50;;
70450;SDS011;58869;51.982;4.450;2023-07-16T02:51:35;8.17;;;8.11;;
70450;SDS011;58869;51.982;4.450;2023-07-16T02:54:07;7.90;;;7.87;;
70450;SDS011;58869;51.982;4.450;2023-07-16T02:56:33;7.58;;;7.56;;
70450;SDS011;58869;51.982;4.450;2023-07-16T02:58:58;6.96;;;6.96;;
70450;SDS011;58869;51.982;4.450;2023-07-16T03:01:24;6.96;;;6.95;;
70450;SDS011;58869;51.982;4.450;2023-07-16T03:04:03;7.23;;;7.13;;
70450;SDS011;58869;51.982;4.450;2023-07-16T03:06:28;6.57;;;6.48;;
70450;SDS011;58869;51.982;4.450;2023-07-16T03:09:06;6.03;;;6.00;;
70450;SDS011;58869;51.982;4.450;2023-07-16T03:11:38;6.71;;;6.66;;
70450;SDS011;58869;51.982;4.450;2023-07-16T03:14:03;6.34;;;6.32;;
70450;SDS011;58869;51.982;4.450;2023-07-16T03:16:29;6.21;;;6.18;;
70450;SDS011;58869;51.982;4.450;2023-07-16T03:19:03;6.48;;;6.46;;
70450;SDS011;58869;51.982;4.450;2023-07-16T03:21:35;6.23;;;6.19;;
70450;SDS011;58869;51.982;4.450;2023-07-16T03:24:12;6.69;;;6.60;;
70450;SDS011;58869;51.982;4.450;2023-07-16T03:26:37;6.84;;;6.79;;
70450;SDS011;58869;51.982;4.450;2023-07-16T03:29:03;7.03;;;6.98;;
70450;SDS011;58869;51.982;4.450;2023-07-16T03:31:28;6.83;;;6.72;;
70450;SDS011;58869;51.982;4.450;2023-07-16T03:33:54;7.17;;;7.03;;
70450;SDS011;58869;51.982;4.450;2023-07-16T03:36:19;7.34;;;7.28;;
70450;SDS011;58869;51.982;4.450;2023-07-16T03:39:08;7.74;;;7.71;;
70450;SDS011;58869;51.982;4.450;2023-07-16T03:41:33;7.88;;;7.77;;
70450;SDS011;58869;51.982;4.450;2023-07-16T03:43:59;8.07;;;7.94;;
70450;SDS011;58869;51.982;4.450;2023-07-16T03:46:24;8.30;;;8.21;;
70450;SDS011;58869;51.982;4.450;2023-07-16T03:48:50;8.08;;;8.00;;
70450;SDS011;58869;51.982;4.450;2023-07-16T03:51:18;8.36;;;8.31;;
70450;SDS011;58869;51.982;4.450;2023-07-16T03:53:46;8.03;;;7.96;;
70450;SDS011;58869;51.982;4.450;2023-07-16T03:56:12;8.14;;;8.06;;
70450;SDS011;58869;51.982;4.450;2023-07-16T03:58:46;8.30;;;8.22;;
70450;SDS011;58869;51.982;4.450;2023-07-16T04:01:12;8.09;;;8.05;;
70450;SDS011;58869;51.982;4.450;2023-07-16T04:03:37;8.05;;;8.01;;
70450;SDS011;58869;51.982;4.450;2023-07-16T04:06:09;8.42;;;8.37;;
70450;SDS011;58869;51.982;4.450;2023-07-16T04:08:35;8.67;;;8.59;;
70450;SDS011;58869;51.982;4.450;2023-07-16T04:11:02;8.52;;;8.39;;
70450;SDS011;58869;51.982;4.450;2023-07-16T04:13:29;8.53;;;8.36;;
70450;SDS011;58869;51.982;4.450;2023-07-16T04:15:54;8.36;;;8.24;;
70450;SDS011;58869;51.982;4.450;2023-07-16T04:18:26;8.50;;;8.42;;
70450;SDS011;58869;51.982;4.450;2023-07-16T04:20:52;8.37;;;8.32;;
70450;SDS011;58869;51.982;4.450;2023-07-16T04:23:33;8.30;;;8.23;;
70450;SDS011;58869;51.982;4.450;2023-07-16T04:25:58;8.47;;;8.36;;
70450;SDS011;58869;51.982;4.450;2023-07-16T04:28:24;8.34;;;8.26;;
70450;SDS011;58869;51.982;4.450;2023-07-16T04:34:16;8.04;;;7.99;;
70450;SDS011;58869;51.982;4.450;2023-07-16T04:36:57;8.46;;;8.39;;
70450;SDS011;58869;51.982;4.450;2023-07-16T04:39:22;9.03;;;8.98;;
70450;SDS011;58869;51.982;4.450;2023-07-16T04:41:57;8.83;;;8.81;;
70450;SDS011;58869;51.982;4.450;2023-07-16T04:44:22;8.49;;;8.43;;
70450;SDS011;58869;51.982;4.450;2023-07-16T04:46:48;8.12;;;8.10;;
70450;SDS011;58869;51.982;4.450;2023-07-16T04:49:13;8.36;;;8.31;;
70450;SDS011;58869;51.982;4.450;2023-07-16T04:51:39;8.03;;;7.97;;
70450;SDS011;58869;51.982;4.450;2023-07-16T04:54:05;8.53;;;8.49;;
70450;SDS011;58869;51.982;4.450;2023-07-16T04:56:36;8.03;;;8.00;;
70450;SDS011;58869;51.982;4.450;2023-07-16T04:59:02;8.14;;;8.11;;
70450;SDS011;58869;51.982;4.450;2023-07-16T05:01:33;8.14;;;8.14;;
70450;SDS011;58869;51.982;4.450;2023-07-16T05:04:02;8.01;;;8.00;;
70450;SDS011;58869;51.982;4.450;2023-07-16T05:06:33;7.85;;;7.82;;
70450;SDS011;58869;51.982;4.450;2023-07-16T05:09:05;7.94;;;7.93;;
70450;SDS011;58869;51.982;4.450;2023-07-16T05:11:30;7.47;;;7.41;;
70450;SDS011;58869;51.982;4.450;2023-07-16T05:13:58;8.37;;;8.35;;
70450;SDS011;58869;51.982;4.450;2023-07-16T05:16:23;7.67;;;7.65;;
70450;SDS011;58869;51.982;4.450;2023-07-16T05:18:52;7.77;;;7.77;;
70450;SDS011;58869;51.982;4.450;2023-07-16T05:21:17;7.59;;;7.58;;
70450;SDS011;58869;51.982;4.450;2023-07-16T05:23:43;7.45;;;7.45;;
70450;SDS011;58869;51.982;4.450;2023-07-16T05:26:08;7.23;;;7.20;;
70450;SDS011;58869;51.982;4.450;2023-07-16T05:28:43;7.75;;;7.67;;
70450;SDS011;58869;51.982;4.450;2023-07-16T05:31:08;7.78;;;7.74;;
70450;SDS011;58869;51.982;4.450;2023-07-16T05:33:36;7.72;;;7.71;;
70450;SDS011;58869;51.982;4.450;2023-07-16T05:36:11;8.03;;;7.99;;
70450;SDS011;58869;51.982;4.450;2023-07-16T05:38:36;7.94;;;7.85;;
70450;SDS011;58869;51.982;4.450;2023-07-16T05:41:02;7.69;;;7.62;;
70450;SDS011;58869;51.982;4.450;2023-07-16T05:43:28;8.23;;;8.18;;
70450;SDS011;58869;51.982;4.450;2023-07-16T05:49:16;7.58;;;7.54;;
70450;SDS011;58869;51.982;4.450;2023-07-16T05:51:44;7.96;;;7.93;;
70450;SDS011;58869;51.982;4.450;2023-07-16T05:54:10;8.06;;;8.04;;
70450;SDS011;58869;51.982;4.450;2023-07-16T05:56:36;8.43;;;8.43;;
70450;SDS011;58869;51.982;4.450;2023-07-16T05:59:01;8.40;;;8.38;;
70450;SDS011;58869;51.982;4.450;2023-07-16T06:01:27;8.34;;;8.32;;
70450;SDS011;58869;51.982;4.450;2023-07-16T06:03:54;8.38;;;8.28;;
70450;SDS011;58869;51.982;4.450;2023-07-16T06:06:38;9.18;;;9.09;;
70450;SDS011;58869;51.982;4.450;2023-07-16T06:09:04;8.74;;;8.71;;
70450;SDS011;58869;51.982;4.450;2023-07-16T06:14:26;8.83;;;8.72;;
70450;SDS011;58869;51.982;4.450;2023-07-16T06:17:04;8.78;;;8.67;;
70450;SDS011;58869;51.982;4.450;2023-07-16T06:19:42;8.63;;;8.60;;
70450;SDS011;58869;51.982;4.450;2023-07-16T06:29:11;8.36;;;8.32;;
70450;SDS011;58869;51.982;4.450;2023-07-16T06:31:37;8.80;;;8.75;;
70450;SDS011;58869;51.982;4.450;2023-07-16T06:34:05;8.49;;;8.45;;
70450;SDS011;58869;51.982;4.450;2023-07-16T06:36:30;8.36;;;8.35;;
70450;SDS011;58869;51.982;4.450;2023-07-16T06:38:56;8.45;;;8.42;;
70450;SDS011;58869;51.982;4.450;2023-07-16T06:41:22;8.17;;;8.11;;
70450;SDS011;58869;51.982;4.450;2023-07-16T06:43:56;7.93;;;7.91;;
70450;SDS011;58869;51.982;4.450;2023-07-16T06:46:21;8.28;;;8.25;;
70450;SDS011;58869;51.982;4.450;2023-07-16T06:49:08;7.77;;;7.76;;
70450;SDS011;58869;51.982;4.450;2023-07-16T06:51:33;8.40;;;8.39;;
70450;SDS011;58869;51.982;4.450;2023-07-16T06:53:58;8.57;;;8.50;;
70450;SDS011;58869;51.982;4.450;2023-07-16T06:56:24;8.66;;;8.65;;
70450;SDS011;58869;51.982;4.450;2023-07-16T06:58:59;8.60;;;8.55;;
70450;SDS011;58869;51.982;4.450;2023-07-16T07:01:24;8.82;;;8.76;;
70450;SDS011;58869;51.982;4.450;2023-07-16T07:03:55;9.03;;;9.01;;
70450;SDS011;58869;51.982;4.450;2023-07-16T07:06:27;8.83;;;8.75;;
70450;SDS011;58869;51.982;4.450;2023-07-16T07:08:53;9.14;;;9.06;;
70450;SDS011;58869;51.982;4.450;2023-07-16T07:11:18;8.72;;;8.67;;
70450;SDS011;58869;51.982;4.450;2023-07-16T07:13:52;8.44;;;8.44;;
70450;SDS011;58869;51.982;4.450;2023-07-16T07:16:18;8.94;;;8.91;;
70450;SDS011;58869;51.982;4.450;2023-07-16T07:18:57;8.96;;;8.84;;
70450;SDS011;58869;51.982;4.450;2023-07-16T07:21:25;8.78;;;8.75;;
70450;SDS011;58869;51.982;4.450;2023-07-16T07:23:51;8.94;;;8.90;;
70450;SDS011;58869;51.982;4.450;2023-07-16T07:26:16;8.74;;;8.74;;
70450;SDS011;58869;51.982;4.450;2023-07-16T07:28:42;8.88;;;8.87;;
70450;SDS011;58869;51.982;4.450;2023-07-16T07:31:08;9.17;;;9.15;;
70450;SDS011;58869;51.982;4.450;2023-07-16T07:33:39;8.65;;;8.64;;
70450;SDS011;58869;51.982;4.450;2023-07-16T07:36:04;8.40;;;8.34;;
70450;SDS011;58869;51.982;4.450;2023-07-16T07:38:33;8.67;;;8.60;;
70450;SDS011;58869;51.982;4.450;2023-07-16T07:40:58;8.45;;;8.44;;
70450;SDS011;58869;51.982;4.450;2023-07-16T07:43:27;7.97;;;7.96;;
70450;SDS011;58869;51.982;4.450;2023-07-16T07:45:52;8.43;;;8.36;;
70450;SDS011;58869;51.982;4.450;2023-07-16T07:48:27;8.96;;;8.91;;
70450;SDS011;58869;51.982;4.450;2023-07-16T07:51:01;8.87;;;8.85;;
70450;SDS011;58869;51.982;4.450;2023-07-16T07:53:27;8.63;;;8.60;;
70450;SDS011;58869;51.982;4.450;2023-07-16T07:55:56;8.14;;;8.13;;
70450;SDS011;58869;51.982;4.450;2023-07-16T07:58:36;8.50;;;8.49;;
70450;SDS011;58869;51.982;4.450;2023-07-16T08:01:11;9.31;;;9.30;;
70450;SDS011;58869;51.982;4.450;2023-07-16T08:03:51;9.19;;;9.19;;
70450;SDS011;58869;51.982;4.450;2023-07-16T08:06:38;8.85;;;8.85;;
70450;SDS011;58869;51.982;4.450;2023-07-16T08:09:02;7.85;;;7.85;;
70450;SDS011;58869;51.982;4.450;2023-07-16T08:11:28;7.66;;;7.64;;
70450;SDS011;58869;51.982;4.450;2023-07-16T08:13:53;7.10;;;7.07;;
70450;SDS011;58869;51.982;4.450;2023-07-16T08:16:19;7.52;;;7.47;;
70450;SDS011;58869;51.982;4.450;2023-07-16T08:18:54;7.78;;;7.71;;
70450;SDS011;58869;51.982;4.450;2023-07-16T08:21:19;7.63;;;7.59;;
70450;SDS011;58869;51.982;4.450;2023-07-16T08:23:57;7.45;;;7.39;;
70450;SDS011;58869;51.982;4.450;2023-07-16T08:26:23;7.09;;;7.07;;
70450;SDS011;58869;51.982;4.450;2023-07-16T08:28:51;7.02;;;7.02;;
70450;SDS011;58869;51.982;4.450;2023-07-16T08:31:17;7.17;;;7.17;;
70450;SDS011;58869;51.982;4.450;2023-07-16T08:33:43;7.44;;;7.43;;
70450;SDS011;58869;51.982;4.450;2023-07-16T08:36:09;7.23;;;7.23;;
70450;SDS011;58869;51.982;4.450;2023-07-16T08:38:50;7.33;;;7.33;;
70450;SDS011;58869;51.982;4.450;2023-07-16T08:41:25;7.74;;;7.69;;
70450;SDS011;58869;51.982;4.450;2023-07-16T08:44:01;7.66;;;7.64;;
70450;SDS011;58869;51.982;4.450;2023-07-16T08:46:30;7.89;;;7.87;;
70450;SDS011;58869;51.982;4.450;2023-07-16T08:49:05;8.30;;;8.28;;
70450;SDS011;58869;51.982;4.450;2023-07-16T08:51:35;8.29;;;8.27;;
70450;SDS011;58869;51.982;4.450;2023-07-16T08:54:04;8.93;;;8.92;;
70450;SDS011;58869;51.982;4.450;2023-07-16T08:56:39;8.72;;;8.66;;
70450;SDS011;58869;51.982;4.450;2023-07-16T08:59:08;9.19;;;9.15;;
70450;SDS011;58869;51.982;4.450;2023-07-16T09:01:35;8.24;;;8.22;;
70450;SDS011;58869;51.982;4.450;2023-07-16T09:04:02;7.96;;;7.94;;
70450;SDS011;58869;51.982;4.450;2023-07-16T09:06:43;7.73;;;7.69;;
70450;SDS011;58869;51.982;4.450;2023-07-16T09:09:13;7.63;;;7.60;;
70450;SDS011;58869;51.982;4.450;2023-07-16T09:11:54;7.15;;;7.10;;
70450;SDS011;58869;51.982;4.450;2023-07-16T09:14:26;6.51;;;6.50;;
70450;SDS011;58869;51.982;4.450;2023-07-16T09:16:54;5.67;;;5.64;;
70450;SDS011;58869;51.982;4.450;2023-07-16T09:19:26;6.06;;;6.01;;
70450;SDS011;58869;51.982;4.450;2023-07-16T09:21:51;6.32;;;6.25;;
70450;SDS011;58869;51.982;4.450;2023-07-16T09:24:17;6.70;;;6.67;;
70450;SDS011;58869;51.982;4.450;2023-07-16T09:26:54;7.22;;;7.19;;
70450;SDS011;58869;51.982;4.450;2023-07-16T09:29:20;7.43;;;7.43;;
70450;SDS011;58869;51.982;4.450;2023-07-16T09:31:59;7.39;;;7.38;;
70450;SDS011;58869;51.982;4.450;2023-07-16T09:34:28;6.20;;;6.19;;
70450;SDS011;58869;51.982;4.450;2023-07-16T09:36:58;5.74;;;5.74;;
70450;SDS011;58869;51.982;4.450;2023-07-16T09:39:26;5.87;;;5.82;;
70450;SDS011;58869;51.982;4.450;2023-07-16T09:41:55;5.34;;;5.30;;
70450;SDS011;58869;51.982;4.450;2023-07-16T09:44:26;5.11;;;5.08;;
70450;SDS011;58869;51.982;4.450;2023-07-16T09:46:55;5.53;;;5.50;;
70450;SDS011;58869;51.982;4.450;2023-07-16T09:49:29;6.13;;;6.11;;
70450;SDS011;58869;51.982;4.450;2023-07-16T09:51:58;6.37;;;6.34;;
70450;SDS011;58869;51.982;4.450;2023-07-16T09:57:05;6.46;;;6.44;;
70450;SDS011;58869;51.982;4.450;2023-07-16T09:59:38;6.55;;;6.54;;
70450;SDS011;58869;51.982;4.450;2023-07-16T10:02:04;6.15;;;6.13;;
70450;SDS011;58869;51.982;4.450;2023-07-16T10:04:39;6.53;;;6.49;;
70450;SDS011;58869;51.982;4.450;2023-07-16T10:07:05;4.96;;;4.95;;
70450;SDS011;58869;51.982;4.450;2023-07-16T10:09:34;4.65;;;4.62;;
70450;SDS011;58869;51.982;4.450;2023-07-16T10:14:44;3.76;;;3.64;;
70450;SDS011;58869;51.982;4.450;2023-07-16T10:17:14;3.78;;;3.65;;
70450;SDS011;58869;51.982;4.450;2023-07-16T10:22:46;4.10;;;4.00;;
70450;SDS011;58869;51.982;4.450;2023-07-16T10:27:44;4.20;;;4.13;;
70450;SDS011;58869;51.982;4.450;2023-07-16T10:30:10;4.16;;;4.09;;
70450;SDS011;58869;51.982;4.450;2023-07-16T10:32:36;4.10;;;4.01;;
70450;SDS011;58869;51.982;4.450;2023-07-16T10:35:11;4.05;;;3.97;;
70450;SDS011;58869;51.982;4.450;2023-07-16T10:37:45;3.89;;;3.82;;
70450;SDS011;58869;51.982;4.450;2023-07-16T10:40:20;3.80;;;3.74;;
70450;SDS011;58869;51.982;4.450;2023-07-16T10:42:49;4.00;;;3.92;;
70450;SDS011;58869;51.982;4.450;2023-07-16T10:45:14;3.83;;;3.77;;
70450;SDS011;58869;51.982;4.450;2023-07-16T10:47:50;3.53;;;3.42;;
70450;SDS011;58869;51.982;4.450;2023-07-16T10:50:27;3.59;;;3.40;;
70450;SDS011;58869;51.982;4.450;2023-07-16T10:52:56;3.77;;;3.61;;
70450;SDS011;58869;51.982;4.450;2023-07-16T10:55:25;3.34;;;3.25;;
70450;SDS011;58869;51.982;4.450;2023-07-16T10:58:14;3.18;;;3.14;;
70450;SDS011;58869;51.982;4.450;2023-07-16T11:00:40;3.68;;;3.59;;
70450;SDS011;58869;51.982;4.450;2023-07-16T11:03:06;3.75;;;3.63;;
70450;SDS011;58869;51.982;4.450;2023-07-16T11:05:34;3.06;;;2.94;;
70450;SDS011;58869;51.982;4.450;2023-07-16T11:08:09;3.32;;;3.15;;
70450;SDS011;58869;51.982;4.450;2023-07-16T11:10:35;3.60;;;3.35;;
70450;SDS011;58869;51.982;4.450;2023-07-16T11:13:00;3.49;;;3.17;;
70450;SDS011;58869;51.982;4.450;2023-07-16T11:15:32;3.32;;;3.07;;
70450;SDS011;58869;51.982;4.450;2023-07-16T11:17:59;3.71;;;3.41;;
70450;SDS011;58869;51.982;4.450;2023-07-16T11:20:37;3.37;;;3.10;;
70450;SDS011;58869;51.982;4.450;2023-07-16T11:23:03;3.50;;;3.16;;
70450;SDS011;58869;51.982;4.450;2023-07-16T11:25:32;3.64;;;3.27;;
70450;SDS011;58869;51.982;4.450;2023-07-16T11:27:58;3.91;;;3.50;;
70450;SDS011;58869;51.982;4.450;2023-07-16T11:30:30;3.84;;;3.43;;
70450;SDS011;58869;51.982;4.450;2023-07-16T11:32:57;4.08;;;3.65;;
70450;SDS011;58869;51.982;4.450;2023-07-16T11:35:32;3.89;;;3.42;;
70450;SDS011;58869;51.982;4.450;2023-07-16T11:37:58;3.45;;;3.04;;
70450;SDS011;58869;51.982;4.450;2023-07-16T11:40:24;3.50;;;3.08;;
70450;SDS011;58869;51.982;4.450;2023-07-16T11:42:52;4.20;;;3.64;;
70450;SDS011;58869;51.982;4.450;2023-07-16T11:45:27;4.22;;;3.64;;
70450;SDS011;58869;51.982;4.450;2023-07-16T11:47:59;3.51;;;3.06;;
70450;SDS011;58869;51.982;4.450;2023-07-16T11:50:25;4.28;;;3.71;;
70450;SDS011;58869;51.982;4.450;2023-07-16T11:52:59;3.91;;;3.43;;
70450;SDS011;58869;51.982;4.450;2023-07-16T11:55:38;3.83;;;3.29;;
70450;SDS011;58869;51.982;4.450;2023-07-16T11:58:04;4.00;;;3.36;;
70450;SDS011;58869;51.982;4.450;2023-07-16T12:00:38;3.92;;;3.33;;
70450;SDS011;58869;51.982;4.450;2023-07-16T12:03:04;3.59;;;2.97;;
70450;SDS011;58869;51.982;4.450;2023-07-16T12:05:33;3.68;;;2.99;;
70450;SDS011;58869;51.982;4.450;2023-07-16T12:07:58;3.88;;;3.11;;
70450;SDS011;58869;51.982;4.450;2023-07-16T12:10:27;3.91;;;3.12;;
70450;SDS011;58869;51.982;4.450;2023-07-16T12:19:21;5.27;;;3.98;;
70450;SDS011;58869;51.982;4.450;2023-07-16T12:21:46;5.11;;;3.79;;
70450;SDS011;58869;51.982;4.450;2023-07-16T12:24:11;5.40;;;3.95;;
70450;SDS011;58869;51.982;4.450;2023-07-16T12:26:37;5.67;;;4.02;;
70450;SDS011;58869;51.982;4.450;2023-07-16T12:29:03;6.71;;;4.66;;
70450;SDS011;58869;51.982;4.450;2023-07-16T12:31:32;6.11;;;4.29;;
70450;SDS011;58869;51.982;4.450;2023-07-16T12:34:06;6.04;;;4.32;;
70450;SDS011;58869;51.982;4.450;2023-07-16T12:36:34;6.04;;;4.23;;
70450;SDS011;58869;51.982;4.450;2023-07-16T12:39:03;5.92;;;4.17;;
70450;SDS011;58869;51.982;4.450;2023-07-16T12:41:38;6.09;;;4.25;;
70450;SDS011;58869;51.982;4.450;2023-07-16T12:44:03;5.89;;;4.16;;
70450;SDS011;58869;51.982;4.450;2023-07-16T12:46:29;5.80;;;4.12;;
70450;SDS011;58869;51.982;4.450;2023-07-16T12:49:03;5.53;;;3.92;;
70450;SDS011;58869;51.982;4.450;2023-07-16T12:51:35;5.45;;;3.88;;
70450;SDS011;58869;51.982;4.450;2023-07-16T12:54:00;6.24;;;4.28;;
70450;SDS011;58869;51.982;4.450;2023-07-16T12:56:26;5.83;;;4.01;;
70450;SDS011;58869;51.982;4.450;2023-07-16T13:02:16;7.01;;;4.86;;
70450;SDS011;58869;51.982;4.450;2023-07-16T13:04:41;6.87;;;4.76;;
70450;SDS011;58869;51.982;4.450;2023-07-16T13:07:07;6.87;;;4.75;;
70450;SDS011;58869;51.982;4.450;2023-07-16T13:09:33;6.69;;;4.62;;
70450;SDS011;58869;51.982;4.450;2023-07-16T13:12:05;6.16;;;4.32;;
70450;SDS011;58869;51.982;4.450;2023-07-16T13:14:31;5.25;;;3.76;;
70450;SDS011;58869;51.982;4.450;2023-07-16T13:16:57;5.04;;;3.69;;
70450;SDS011;58869;51.982;4.450;2023-07-16T13:19:25;5.16;;;3.78;;
70450;SDS011;58869;51.982;4.450;2023-07-16T13:21:54;5.16;;;3.82;;
70450;SDS011;58869;51.982;4.450;2023-07-16T13:24:19;5.37;;;3.95;;
70450;SDS011;58869;51.982;4.450;2023-07-16T13:26:45;4.55;;;3.34;;
70450;SDS011;58869;51.982;4.450;2023-07-16T13:29:10;4.53;;;3.36;;
70450;SDS011;58869;51.982;4.450;2023-07-16T13:31:39;4.77;;;3.49;;
70450;SDS011;58869;51.982;4.450;2023-07-16T13:34:04;5.28;;;3.84;;
70450;SDS011;58869;51.982;4.450;2023-07-16T13:36:33;5.22;;;3.77;;
70450;SDS011;58869;51.982;4.450;2023-07-16T13:39:05;5.79;;;4.21;;
70450;SDS011;58869;51.982;4.450;2023-07-16T13:41:30;6.12;;;4.40;;
70450;SDS011;58869;51.982;4.450;2023-07-16T13:43:56;6.50;;;4.60;;
70450;SDS011;58869;51.982;4.450;2023-07-16T13:46:21;6.50;;;4.58;;
70450;SDS011;58869;51.982;4.450;2023-07-16T13:48:47;7.61;;;5.36;;
70450;SDS011;58869;51.982;4.450;2023-07-16T13:51:13;7.09;;;4.96;;
70450;SDS011;58869;51.982;4.450;2023-07-16T13:53:41;6.83;;;4.74;;
70450;SDS011;58869;51.982;4.450;2023-07-16T13:56:06;6.99;;;4.88;;
70450;SDS011;58869;51.982;4.450;2023-07-16T13:58:33;7.06;;;4.89;;
70450;SDS011;58869;51.982;4.450;2023-07-16T14:00:59;6.33;;;4.51;;
70450;SDS011;58869;51.982;4.450;2023-07-16T14:03:28;5.50;;;4.04;;
70450;SDS011;58869;51.982;4.450;2023-07-16T14:05:59;6.23;;;4.56;;
70450;SDS011;58869;51.982;4.450;2023-07-16T14:08:40;6.14;;;4.42;;
70450;SDS011;58869;51.982;4.450;2023-07-16T14:11:09;5.87;;;4.22;;
70450;SDS011;58869;51.982;4.450;2023-07-16T14:13:35;5.55;;;4.07;;
70450;SDS011;58869;51.982;4.450;2023-07-16T14:16:00;6.45;;;4.58;;
70450;SDS011;58869;51.982;4.450;2023-07-16T14:18:41;6.44;;;4.50;;
70450;SDS011;58869;51.982;4.450;2023-07-16T14:21:06;6.99;;;4.87;;
70450;SDS011;58869;51.982;4.450;2023-07-16T14:23:32;6.88;;;4.92;;
70450;SDS011;58869;51.982;4.450;2023-07-16T14:25:57;7.33;;;5.16;;
70450;SDS011;58869;51.982;4.450;2023-07-16T14:28:22;7.74;;;5.38;;
70450;SDS011;58869;51.982;4.450;2023-07-16T14:30:48;7.66;;;5.26;;
70450;SDS011;58869;51.982;4.450;2023-07-16T14:33:17;6.68;;;4.68;;
70450;SDS011;58869;51.982;4.450;2023-07-16T14:36:00;7.74;;;5.31;;
70450;SDS011;58869;51.982;4.450;2023-07-16T14:38:31;7.59;;;5.28;;
70450;SDS011;58869;51.982;4.450;2023-07-16T14:40:57;8.02;;;5.55;;
70450;SDS011;58869;51.982;4.450;2023-07-16T14:43:22;7.72;;;5.35;;
70450;SDS011;58869;51.982;4.450;2023-07-16T14:45:57;7.37;;;5.23;;
70450;SDS011;58869;51.982;4.450;2023-07-16T14:48:22;7.01;;;4.99;;
70450;SDS011;58869;51.982;4.450;2023-07-16T14:50:49;6.58;;;4.80;;
70450;SDS011;58869;51.982;4.450;2023-07-16T14:53:30;6.11;;;4.47;;
70450;SDS011;58869;51.982;4.450;2023-07-16T14:55:56;6.90;;;5.03;;
70450;SDS011;58869;51.982;4.450;2023-07-16T14:58:27;6.37;;;4.64;;
70450;SDS011;58869;51.982;4.450;2023-07-16T15:01:01;6.69;;;4.75;;
70450;SDS011;58869;51.982;4.450;2023-07-16T15:03:29;6.87;;;4.86;;
70450;SDS011;58869;51.982;4.450;2023-07-16T15:05:58;6.79;;;4.90;;
70450;SDS011;58869;51.982;4.450;2023-07-16T15:08:24;6.00;;;4.39;;
70450;SDS011;58869;51.982;4.450;2023-07-16T15:10:51;6.21;;;4.58;;
70450;SDS011;58869;51.982;4.450;2023-07-16T15:13:17;6.23;;;4.62;;
70450;SDS011;58869;51.982;4.450;2023-07-16T15:15:49;5.97;;;4.44;;
70450;SDS011;58869;51.982;4.450;2023-07-16T15:18:15;6.72;;;4.95;;
70450;SDS011;58869;51.982;4.450;2023-07-16T15:20:41;7.10;;;5.18;;
70450;SDS011;58869;51.982;4.450;2023-07-16T15:23:06;7.20;;;5.21;;
70450;SDS011;58869;51.982;4.450;2023-07-16T15:25:32;6.87;;;5.00;;
70450;SDS011;58869;51.982;4.450;2023-07-16T15:28:06;6.26;;;4.58;;
70450;SDS011;58869;51.982;4.450;2023-07-16T15:30:38;6.74;;;5.01;;
70450;SDS011;58869;51.982;4.450;2023-07-16T15:33:03;6.01;;;4.55;;
70450;SDS011;58869;51.982;4.450;2023-07-16T15:35:29;5.96;;;4.53;;
70450;SDS011;58869;51.982;4.450;2023-07-16T15:38:09;5.26;;;4.04;;
70450;SDS011;58869;51.982;4.450;2023-07-16T15:40:35;5.63;;;4.26;;
70450;SDS011;58869;51.982;4.450;2023-07-16T15:43:01;6.06;;;4.52;;
70450;SDS011;58869;51.982;4.450;2023-07-16T15:45:38;5.93;;;4.43;;
70450;SDS011;58869;51.982;4.450;2023-07-16T15:48:04;4.92;;;3.84;;